createdAt,value
2022-10-08T00:00:51.657Z,60.40
2022-10-08T00:03:19.917Z,60.50
2022-10-08T00:05:57.133Z,60.62
2022-10-08T00:08:24.717Z,60.53
2022-10-08T00:10:56.060Z,60.53
2022-10-08T00:13:23.787Z,60.63
2022-10-08T00:15:50.927Z,60.20
2022-10-08T00:18:17.746Z,59.94
2022-10-08T00:20:44.402Z,60.40
2022-10-08T00:23:11.203Z,60.48
2022-10-08T00:25:42.411Z,60.83
2022-10-08T00:28:10.418Z,60.52
2022-10-08T00:30:41.222Z,60.82
2022-10-08T00:33:08.745Z,60.80
2022-10-08T00:35:39.641Z,60.98
2022-10-08T00:38:07.402Z,60.99
2022-10-08T00:40:44.322Z,61.33
2022-10-08T00:43:16.440Z,61.28
2022-10-08T00:45:47.266Z,61.61
2022-10-08T00:48:25.646Z,61.11
2022-10-08T00:50:52.410Z,61.42
2022-10-08T00:53:19.039Z,61.88
2022-10-08T00:55:45.522Z,61.68
2022-10-08T00:58:18.887Z,61.80
2022-10-08T01:00:45.548Z,61.67
2022-10-08T01:03:12.077Z,62.07
2022-10-08T01:05:50.082Z,61.71
2022-10-08T01:08:33.898Z,61.77
2022-10-08T01:11:08.868Z,62.07
2022-10-08T01:13:49.178Z,62.04
2022-10-08T01:16:36.153Z,61.68
2022-10-08T01:19:54.738Z,62.25
2022-10-08T01:22:40.882Z,62.20
2022-10-08T01:25:58.022Z,62.61
2022-10-08T01:28:31.500Z,62.70
2022-10-08T01:31:05.491Z,62.76
2022-10-08T01:33:45.506Z,63.25
2022-10-08T01:36:14.957Z,63.07
2022-10-08T01:38:47.177Z,63.73
2022-10-08T01:41:16.884Z,63.68
2022-10-08T01:43:49.310Z,63.44
2022-10-08T01:46:25.217Z,63.47
2022-10-08T01:48:56.066Z,63.41
2022-10-08T01:51:34.385Z,63.91
2022-10-08T01:54:05.265Z,63.47
2022-10-08T01:56:34.208Z,63.55
2022-10-08T01:59:10.049Z,63.83
2022-10-08T02:01:49.703Z,63.82
2022-10-08T02:04:37.617Z,63.50
2022-10-08T02:07:20.149Z,63.26
2022-10-08T02:09:51.360Z,63.35
2022-10-08T02:12:19.391Z,63.34
2022-10-08T02:14:52.935Z,62.98
2022-10-08T02:17:41.207Z,62.95
2022-10-08T02:20:20.689Z,63.72
2022-10-08T02:23:08.993Z,63.71
2022-10-08T02:25:49.285Z,63.66
2022-10-08T02:28:44.131Z,63.80
2022-10-08T02:31:18.435Z,64.24
2022-10-08T02:34:06.926Z,64.05
2022-10-08T02:36:41.254Z,63.95
2022-10-08T02:39:08.322Z,64.56
2022-10-08T02:41:39.214Z,64.41
2022-10-08T02:44:15.616Z,63.86
2022-10-08T02:46:46.317Z,64.27
2022-10-08T02:49:20.333Z,63.85
2022-10-08T02:51:49.775Z,63.63
2022-10-08T02:54:20.084Z,63.90
2022-10-08T02:56:57.168Z,64.48
2022-10-08T02:59:25.162Z,64.80
2022-10-08T03:02:02.698Z,64.89
2022-10-08T03:04:44.075Z,65.38
2022-10-08T03:07:12.417Z,66.13
2022-10-08T03:09:43.031Z,66.40
2022-10-08T03:12:09.572Z,66.46
2022-10-08T03:14:40.102Z,67.28
2022-10-08T03:17:08.837Z,68.25
2022-10-08T03:19:35.584Z,71.32
2022-10-08T03:22:05.343Z,71.30
2022-10-08T03:24:31.687Z,71.61
2022-10-08T03:26:58.069Z,74.26
2022-10-08T03:29:25.754Z,74.48
2022-10-08T03:31:55.104Z,77.49
2022-10-08T03:34:21.591Z,77.64
2022-10-08T03:36:50.471Z,77.31
2022-10-08T03:39:16.969Z,77.95
2022-10-08T03:41:43.365Z,77.33
2022-10-08T03:44:12.283Z,77.63
2022-10-08T03:46:38.889Z,77.85
2022-10-08T03:49:05.372Z,79.09
2022-10-08T03:51:34.943Z,80.01
2022-10-08T03:54:01.348Z,79.90
2022-10-08T03:56:28.911Z,80.96
2022-10-08T03:58:58.643Z,81.55
2022-10-08T04:01:27.198Z,82.84
2022-10-08T04:03:54.526Z,82.88
2022-10-08T04:06:21.171Z,82.55
2022-10-08T04:08:47.623Z,83.78
2022-10-08T04:11:17.680Z,83.78
2022-10-08T04:13:44.705Z,84.21
2022-10-08T04:16:16.343Z,84.72
2022-10-08T04:18:44.022Z,84.24
2022-10-08T04:21:13.488Z,84.93
2022-10-08T04:23:41.703Z,85.48
2022-10-08T04:26:09.693Z,85.84
2022-10-08T04:28:41.341Z,86.25
2022-10-08T04:31:12.207Z,86.59
2022-10-08T04:33:38.999Z,85.81
2022-10-08T04:36:18.303Z,84.75
2022-10-08T04:38:45.703Z,85.96
2022-10-08T04:41:14.817Z,85.67
2022-10-08T04:43:42.943Z,85.63
2022-10-08T04:46:11.670Z,85.65
2022-10-08T04:48:39.058Z,85.23
2022-10-08T04:51:10.556Z,85.35
2022-10-08T04:53:37.549Z,85.62
2022-10-08T04:56:17.016Z,85.09
2022-10-08T04:58:44.475Z,85.46
2022-10-08T05:01:14.175Z,85.50
2022-10-08T05:03:48.497Z,85.07
2022-10-08T05:06:16.806Z,85.09
2022-10-08T05:08:44.513Z,85.39
2022-10-08T05:11:13.808Z,84.48
2022-10-08T05:13:40.466Z,84.55
2022-10-08T05:16:12.105Z,84.55
2022-10-08T05:18:39.829Z,84.48
2022-10-08T05:21:11.835Z,84.28
2022-10-08T05:23:38.996Z,84.73
2022-10-08T05:26:17.324Z,85.19
2022-10-08T05:28:46.945Z,85.22
2022-10-08T05:31:17.248Z,85.36
2022-10-08T05:33:44.292Z,85.05
2022-10-08T05:36:20.405Z,85.06
2022-10-08T05:38:47.040Z,85.18
2022-10-08T05:41:15.563Z,85.35
2022-10-08T05:43:41.919Z,85.67
2022-10-08T05:46:09.158Z,85.74
2022-10-08T05:48:36.100Z,85.74
2022-10-08T05:51:06.776Z,86.57
2022-10-08T05:53:38.331Z,86.94
2022-10-08T05:56:09.976Z,86.71
2022-10-08T05:58:37.794Z,87.94
2022-10-08T06:01:26.468Z,86.70
2022-10-08T06:03:54.979Z,86.27
2022-10-08T06:06:27.794Z,86.63
2022-10-08T06:08:56.022Z,86.66
2022-10-08T06:11:22.408Z,86.67
2022-10-08T06:13:53.284Z,86.89
2022-10-08T06:16:20.065Z,86.70
2022-10-08T06:18:46.578Z,86.33
2022-10-08T06:21:16.545Z,86.64
2022-10-08T06:23:51.351Z,86.45
2022-10-08T06:26:18.638Z,86.24
2022-10-08T06:28:45.872Z,86.81
2022-10-08T06:31:13.619Z,87.22
2022-10-08T06:33:40.410Z,86.96
2022-10-08T06:36:15.984Z,87.58
2022-10-08T06:38:42.684Z,86.64
2022-10-08T06:41:09.064Z,86.40
2022-10-08T06:43:35.804Z,86.40
2022-10-08T06:46:06.329Z,86.71
2022-10-08T06:51:53.533Z,87.32
2022-10-08T06:54:19.950Z,87.06
2022-10-08T06:56:46.394Z,87.24
2022-10-08T06:59:12.844Z,86.92
2022-10-08T07:01:39.421Z,86.87
2022-10-08T07:04:07.027Z,86.32
2022-10-08T07:06:34.055Z,86.38
2022-10-08T07:09:02.125Z,86.52
2022-10-08T07:11:30.080Z,85.77
2022-10-08T07:14:07.031Z,86.27
2022-10-08T07:16:33.630Z,85.55
2022-10-08T07:19:00.223Z,85.75
2022-10-08T07:21:28.384Z,86.60
2022-10-08T07:23:55.441Z,86.61
2022-10-08T07:26:27.383Z,86.59
2022-10-08T07:28:56.940Z,86.51
2022-10-08T07:31:31.597Z,85.63
2022-10-08T07:33:59.549Z,85.78
2022-10-08T07:36:27.131Z,85.33
2022-10-08T07:38:55.203Z,86.54
2022-10-08T07:41:21.872Z,85.58
2022-10-08T07:43:53.625Z,84.74
2022-10-08T07:46:20.595Z,84.41
2022-10-08T07:48:47.133Z,83.51
2022-10-08T07:51:16.194Z,83.80
2022-10-08T07:53:43.542Z,83.13
2022-10-08T07:56:11.643Z,83.23
2022-10-08T07:58:38.926Z,83.10
2022-10-08T08:01:08.000Z,82.24
2022-10-08T08:03:34.936Z,82.99
2022-10-08T08:06:20.400Z,83.04
2022-10-08T08:08:46.873Z,83.92
2022-10-08T08:11:16.123Z,82.48
2022-10-08T08:13:42.994Z,82.30
2022-10-08T08:16:15.513Z,82.56
2022-10-08T08:18:44.349Z,81.77
2022-10-08T08:21:22.856Z,81.49
2022-10-08T08:23:52.410Z,81.74
2022-10-08T08:26:22.127Z,82.17
2022-10-08T08:28:53.570Z,80.77
2022-10-08T08:31:27.608Z,80.30
2022-10-08T08:34:15.997Z,79.99
2022-10-08T08:36:45.128Z,80.48
2022-10-08T08:39:17.907Z,78.85
2022-10-08T08:42:05.985Z,78.78
2022-10-08T08:44:37.565Z,79.15
2022-10-08T08:47:18.954Z,78.26
2022-10-08T08:49:52.283Z,77.74
2022-10-08T08:52:22.883Z,76.04
2022-10-08T08:54:51.009Z,75.79
2022-10-08T08:57:42.301Z,74.77
2022-10-08T09:00:18.030Z,74.11
2022-10-08T09:03:05.165Z,74.65
2022-10-08T09:05:38.597Z,74.30
2022-10-08T09:08:15.936Z,73.67
2022-10-08T09:10:48.160Z,73.92
2022-10-08T09:13:19.003Z,73.61
2022-10-08T09:15:46.449Z,73.30
2022-10-08T09:18:15.403Z,73.79
2022-10-08T09:20:42.430Z,73.47
2022-10-08T09:23:15.986Z,73.28
2022-10-08T09:25:44.110Z,72.51
2022-10-08T09:28:10.915Z,71.82
2022-10-08T09:30:42.892Z,71.58
2022-10-08T09:33:12.299Z,71.64
2022-10-08T09:35:48.171Z,70.21
2022-10-08T09:38:23.403Z,68.83
2022-10-08T09:41:22.208Z,68.47
2022-10-08T09:44:12.007Z,66.68
2022-10-08T09:46:38.369Z,64.71
2022-10-08T09:49:29.222Z,64.99
2022-10-08T09:51:58.552Z,65.69
2022-10-08T09:54:28.344Z,65.19
2022-10-08T09:57:02.280Z,65.42
2022-10-08T09:59:31.455Z,65.44
2022-10-08T10:01:58.878Z,66.10
2022-10-08T10:04:34.479Z,65.58
2022-10-08T10:07:01.880Z,66.01
2022-10-08T10:09:52.251Z,64.89
2022-10-08T10:12:29.984Z,64.67
2022-10-08T10:15:05.579Z,64.67
2022-10-08T10:17:40.320Z,64.27
2022-10-08T10:20:23.714Z,63.77
2022-10-08T10:22:53.337Z,60.63
2022-10-08T10:25:44.450Z,51.86
2022-10-08T10:28:19.754Z,44.74
2022-10-08T10:30:55.626Z,41.16
2022-10-08T10:33:57.577Z,41.73
2022-10-08T10:36:29.082Z,46.33
2022-10-08T10:39:08.832Z,49.19
2022-10-08T10:41:52.817Z,52.17
2022-10-08T10:44:25.691Z,54.34
2022-10-08T10:46:56.728Z,56.09
2022-10-08T10:49:33.705Z,54.87
2022-10-08T10:52:21.268Z,54.71
2022-10-08T10:54:59.621Z,52.78
2022-10-08T10:57:41.043Z,52.25
2022-10-08T11:00:30.170Z,52.33
2022-10-08T11:03:07.325Z,52.50
2022-10-08T11:05:36.518Z,52.86
2022-10-08T11:08:26.935Z,53.62
2022-10-08T11:11:29.558Z,51.32
2022-10-08T11:14:13.517Z,51.32
2022-10-08T11:16:51.761Z,51.14
2022-10-08T11:19:49.891Z,51.08
2022-10-08T11:22:28.101Z,50.31
2022-10-08T11:25:06.823Z,49.03
2022-10-08T11:27:51.460Z,49.13
2022-10-08T11:30:29.326Z,49.26
2022-10-08T11:32:57.596Z,48.68
2022-10-08T11:35:35.622Z,47.53
2022-10-08T11:38:11.990Z,46.39
2022-10-08T11:40:53.098Z,46.14
2022-10-08T11:43:57.203Z,45.51
2022-10-08T11:46:28.924Z,45.29
2022-10-08T11:48:58.126Z,46.00
2022-10-08T11:51:24.400Z,45.91
2022-10-08T11:54:09.472Z,47.24
2022-10-08T11:56:38.751Z,46.77
2022-10-08T11:59:36.265Z,48.21
2022-10-08T12:02:18.831Z,48.38
2022-10-08T12:04:48.930Z,48.62
2022-10-08T12:07:15.201Z,49.55
2022-10-08T12:10:06.339Z,50.96
2022-10-08T12:12:51.049Z,51.85
2022-10-08T12:15:23.537Z,50.62
2022-10-08T12:18:00.368Z,51.72
2022-10-08T12:20:28.702Z,50.01
2022-10-08T12:23:20.798Z,49.26
2022-10-08T12:25:48.905Z,46.12
2022-10-08T12:28:21.210Z,44.24
2022-10-08T12:30:54.047Z,42.85
2022-10-08T12:33:21.202Z,42.72
2022-10-08T12:35:56.397Z,42.90
2022-10-08T12:38:37.141Z,41.40
2022-10-08T12:41:22.311Z,42.20
2022-10-08T12:44:14.567Z,41.56
2022-10-08T12:46:50.702Z,41.00
2022-10-08T12:49:35.698Z,41.49
2022-10-08T12:52:10.481Z,40.92
2022-10-08T12:54:40.854Z,39.98
2022-10-08T12:57:10.165Z,39.01
2022-10-08T12:59:40.092Z,39.40
2022-10-08T13:02:24.699Z,38.62
2022-10-08T13:04:51.495Z,36.96
2022-10-08T13:07:24.651Z,37.51
2022-10-08T13:10:13.693Z,38.72
2022-10-08T13:12:41.740Z,39.17
2022-10-08T13:15:22.763Z,40.15
2022-10-08T13:17:49.912Z,41.54
2022-10-08T13:20:19.620Z,41.64
2022-10-08T13:22:46.167Z,42.51
2022-10-08T13:25:31.167Z,42.91
2022-10-08T13:28:48.445Z,43.94
2022-10-08T13:31:21.799Z,44.75
2022-10-08T13:33:48.067Z,44.84
2022-10-08T13:36:20.915Z,44.86
2022-10-08T13:38:47.300Z,45.26
2022-10-08T13:41:23.197Z,45.46
2022-10-08T13:43:49.516Z,43.17
2022-10-08T13:46:15.816Z,43.42
2022-10-08T13:48:45.204Z,42.45
2022-10-08T13:51:11.660Z,41.69
2022-10-08T13:53:41.008Z,41.69
2022-10-08T13:56:09.571Z,41.09
2022-10-08T13:58:35.823Z,40.57
2022-10-08T14:01:02.238Z,39.34
2022-10-08T14:03:28.551Z,39.50
2022-10-08T14:05:54.797Z,38.46
2022-10-08T14:08:25.820Z,39.49
2022-10-08T14:10:57.456Z,39.19
2022-10-08T14:13:23.780Z,39.29
2022-10-08T14:15:50.472Z,39.12
2022-10-08T14:18:17.023Z,38.77
2022-10-08T14:20:43.273Z,38.72
2022-10-08T14:23:13.126Z,38.76
2022-10-08T14:25:39.391Z,39.75
2022-10-08T14:28:05.681Z,38.99
2022-10-08T14:30:32.158Z,40.05
2022-10-08T14:32:58.437Z,40.62
2022-10-08T14:35:24.792Z,40.90
2022-10-08T14:37:51.323Z,39.67
2022-10-08T14:40:19.691Z,40.46
2022-10-08T14:42:46.394Z,40.72
2022-10-08T14:45:12.943Z,40.81
2022-10-08T14:47:39.245Z,41.00
2022-10-08T14:50:05.901Z,40.38
2022-10-08T14:52:32.898Z,41.03
2022-10-08T14:54:59.323Z,40.54
2022-10-08T14:57:25.547Z,41.13
2022-10-08T14:59:51.948Z,40.15
2022-10-08T15:02:18.221Z,41.77
2022-10-08T15:04:44.511Z,41.77
2022-10-08T15:07:10.738Z,41.56
2022-10-08T15:09:37.470Z,40.72
2022-10-08T15:12:03.714Z,40.39
2022-10-08T15:14:33.242Z,40.75
2022-10-08T15:17:02.002Z,39.85
2022-10-08T15:19:28.376Z,39.92
2022-10-08T15:21:54.796Z,39.94
2022-10-08T15:24:21.039Z,40.66
2022-10-08T15:26:47.269Z,40.34
2022-10-08T15:29:13.522Z,39.88
2022-10-08T15:31:39.828Z,40.71
2022-10-08T15:34:06.139Z,41.39
2022-10-08T15:36:33.924Z,40.88
2022-10-08T15:39:01.701Z,41.59
2022-10-08T15:41:28.866Z,40.62
2022-10-08T15:43:55.311Z,40.09
2022-10-08T15:46:22.557Z,39.74
2022-10-08T15:48:53.490Z,39.74
2022-10-08T15:51:20.404Z,39.11
2022-10-08T15:53:46.743Z,39.40
2022-10-08T15:56:13.034Z,38.91
2022-10-08T15:58:50.309Z,38.41
2022-10-08T16:01:17.955Z,38.91
2022-10-08T16:03:45.430Z,39.75
2022-10-08T16:06:12.995Z,39.69
2022-10-08T16:08:39.820Z,39.78
2022-10-08T16:11:17.643Z,40.58
2022-10-08T16:13:44.860Z,41.14
2022-10-08T16:16:15.165Z,42.02
2022-10-08T16:18:41.671Z,42.22
2022-10-08T16:21:07.983Z,42.91
2022-10-08T16:23:35.711Z,43.30
2022-10-08T16:26:03.581Z,43.44
2022-10-08T16:28:34.863Z,44.02
2022-10-08T16:31:01.519Z,44.37
2022-10-08T16:33:27.940Z,44.85
2022-10-08T16:35:54.867Z,45.54
2022-10-08T16:38:21.130Z,45.60
2022-10-08T16:40:47.399Z,45.92
2022-10-08T16:43:13.828Z,46.08
2022-10-08T16:45:40.479Z,46.28
2022-10-08T16:48:08.214Z,46.73
2022-10-08T16:50:41.258Z,46.97
2022-10-08T16:53:08.668Z,47.42
2022-10-08T16:55:35.575Z,47.79
2022-10-08T16:58:02.101Z,47.66
2022-10-08T17:00:28.382Z,48.06
2022-10-08T17:02:54.700Z,48.48
2022-10-08T17:05:21.172Z,49.20
2022-10-08T17:07:47.406Z,49.42
2022-10-08T17:10:13.725Z,49.46
2022-10-08T17:12:40.526Z,50.73
2022-10-08T17:15:07.402Z,50.21
2022-10-08T17:17:33.651Z,51.13
2022-10-08T17:19:59.912Z,51.15
2022-10-08T17:22:26.195Z,52.22
2022-10-08T17:24:52.444Z,51.53
2022-10-08T17:27:18.715Z,52.67
2022-10-08T17:29:45.486Z,51.52
2022-10-08T17:32:12.005Z,51.46
2022-10-08T17:34:38.499Z,51.66
2022-10-08T17:37:04.943Z,52.24
2022-10-08T17:39:32.494Z,52.84
2022-10-08T17:41:59.618Z,53.87
2022-10-08T17:44:28.007Z,53.47
2022-10-08T17:46:54.310Z,53.72
2022-10-08T17:49:21.073Z,53.38
2022-10-08T17:51:47.737Z,53.76
2022-10-08T17:54:15.975Z,53.27
2022-10-08T17:56:42.662Z,53.17
2022-10-08T17:59:09.121Z,53.78
2022-10-08T18:01:36.186Z,54.95
2022-10-08T18:04:07.432Z,53.59
2022-10-08T18:06:34.550Z,54.50
2022-10-08T18:09:02.155Z,54.87
2022-10-08T18:11:29.369Z,54.79
2022-10-08T18:13:56.021Z,55.07
2022-10-08T18:16:22.495Z,55.82
2022-10-08T18:18:49.099Z,56.25
2022-10-08T18:21:16.400Z,56.93
2022-10-08T18:23:43.002Z,56.35
2022-10-08T18:26:20.107Z,55.74
2022-10-08T18:28:47.497Z,55.98
2022-10-08T18:31:15.027Z,55.64
2022-10-08T18:33:43.163Z,56.12
2022-10-08T18:36:11.096Z,55.44
2022-10-08T18:38:37.995Z,55.85
2022-10-08T18:41:30.765Z,56.29
2022-10-08T18:43:59.101Z,55.33
2022-10-08T18:46:25.595Z,55.64
2022-10-08T18:48:52.011Z,55.87
2022-10-08T18:51:22.855Z,56.44
2022-10-08T18:53:49.804Z,56.93
2022-10-08T18:56:18.191Z,56.95
2022-10-08T18:58:44.785Z,56.71
2022-10-08T19:01:17.686Z,56.15
2022-10-08T19:03:44.762Z,56.88
2022-10-08T19:06:17.575Z,57.57
2022-10-08T19:08:53.323Z,57.87
2022-10-08T19:11:30.161Z,57.06
2022-10-08T19:14:06.485Z,56.99
2022-10-08T19:16:38.676Z,57.08
2022-10-08T19:19:11.908Z,56.85
2022-10-08T19:21:38.680Z,56.66
2022-10-08T19:24:06.461Z,56.96
2022-10-08T19:26:32.733Z,57.51
2022-10-08T19:28:59.399Z,57.72
2022-10-08T19:31:30.779Z,57.99
2022-10-08T19:33:58.723Z,58.62
2022-10-08T19:36:25.841Z,58.67
2022-10-08T19:38:59.712Z,58.56
2022-10-08T19:41:26.831Z,58.99
2022-10-08T19:43:53.765Z,59.15
2022-10-08T19:46:20.477Z,58.63
2022-10-08T19:48:50.894Z,58.24
2022-10-08T19:51:18.090Z,58.69
2022-10-08T19:53:44.339Z,58.67
2022-10-08T19:56:11.391Z,58.00
2022-10-08T19:58:38.337Z,58.22
2022-10-08T20:01:09.644Z,58.71
2022-10-08T20:03:36.825Z,58.74
2022-10-08T20:06:07.909Z,59.17
2022-10-08T20:08:34.985Z,59.02
2022-10-08T20:11:05.615Z,59.26
2022-10-08T20:13:32.291Z,58.80
2022-10-08T20:16:05.487Z,57.95
2022-10-08T20:18:31.997Z,57.52
2022-10-08T20:21:02.782Z,57.22
2022-10-08T20:23:29.045Z,58.02
2022-10-08T20:25:55.807Z,59.38
2022-10-08T20:28:22.101Z,59.05
2022-10-08T20:30:48.443Z,58.07
2022-10-08T20:33:14.730Z,58.71
2022-10-08T20:35:41.011Z,58.96
2022-10-08T20:38:07.294Z,58.42
2022-10-08T20:40:33.544Z,59.77
2022-10-08T20:42:59.767Z,59.97
2022-10-08T20:45:26.082Z,60.54
2022-10-08T20:47:52.387Z,60.54
2022-10-08T20:50:18.618Z,60.25
2022-10-08T20:52:44.991Z,60.57
2022-10-08T20:55:11.514Z,60.19
2022-10-08T20:57:37.768Z,59.68
2022-10-08T21:00:04.190Z,59.97
2022-10-08T21:02:30.493Z,59.80
2022-10-08T21:04:56.767Z,59.53
2022-10-08T21:07:22.990Z,59.09
2022-10-08T21:09:52.371Z,59.40
2022-10-08T21:12:18.639Z,59.74
2022-10-08T21:14:44.878Z,59.18
2022-10-08T21:17:11.088Z,59.45
2022-10-08T21:19:37.408Z,59.74
2022-10-08T21:22:03.679Z,58.98
2022-10-08T21:24:30.174Z,59.39
2022-10-08T21:26:56.494Z,60.07
2022-10-08T21:29:22.784Z,60.15
2022-10-08T21:31:49.124Z,61.07
2022-10-08T21:34:16.003Z,61.35
2022-10-08T21:36:42.621Z,61.14
2022-10-08T21:39:10.785Z,61.80
2022-10-08T21:41:37.462Z,61.90
2022-10-08T21:44:05.141Z,61.96
2022-10-08T21:46:32.882Z,60.26
2022-10-08T21:49:00.065Z,60.49
2022-10-08T21:51:27.291Z,59.79
2022-10-08T21:53:54.716Z,59.75
2022-10-08T21:56:22.758Z,59.39
2022-10-08T21:58:50.108Z,58.89
2022-10-08T22:01:19.382Z,58.53
2022-10-08T22:03:45.809Z,59.47
2022-10-08T22:06:12.140Z,59.87
2022-10-08T22:08:38.402Z,61.74
2022-10-08T22:11:05.427Z,61.16
2022-10-08T22:13:31.861Z,61.31
2022-10-08T22:15:59.414Z,61.40
2022-10-08T22:18:26.997Z,62.22
2022-10-08T22:20:53.661Z,62.00
2022-10-08T22:23:21.068Z,61.41
2022-10-08T22:25:57.937Z,60.88
2022-10-08T22:28:24.420Z,60.53
2022-10-08T22:30:50.801Z,59.84
2022-10-08T22:33:17.098Z,60.05
2022-10-08T22:35:43.540Z,60.44
2022-10-08T22:38:10.239Z,60.65
2022-10-08T22:40:36.650Z,61.52
2022-10-08T22:43:03.028Z,61.20
2022-10-08T22:45:29.366Z,60.29
2022-10-08T22:47:55.687Z,61.12
2022-10-08T22:50:21.998Z,62.23
2022-10-08T22:52:50.054Z,61.95
2022-10-08T22:55:17.293Z,61.70
2022-10-08T22:57:44.129Z,60.64
2022-10-08T23:00:10.778Z,61.24
2022-10-08T23:02:37.078Z,60.78
2022-10-08T23:05:03.710Z,60.38
2022-10-08T23:07:30.409Z,59.79
2022-10-08T23:09:57.000Z,60.27
2022-10-08T23:12:23.317Z,60.71
2022-10-08T23:14:49.564Z,61.13
2022-10-08T23:17:15.835Z,61.86
2022-10-08T23:19:42.119Z,61.69
2022-10-08T23:22:08.370Z,61.27
2022-10-08T23:24:34.690Z,61.94
2022-10-08T23:27:00.979Z,62.44
2022-10-08T23:29:27.303Z,62.68
2022-10-08T23:31:53.581Z,62.67
2022-10-08T23:34:19.951Z,63.15
2022-10-08T23:36:46.171Z,62.53
2022-10-08T23:39:14.504Z,62.24
2022-10-08T23:41:40.898Z,62.65
2022-10-08T23:44:08.862Z,62.77
2022-10-08T23:46:35.121Z,61.68
2022-10-08T23:49:01.736Z,61.68
2022-10-08T23:51:28.605Z,62.02
2022-10-08T23:53:55.259Z,62.01
2022-10-08T23:56:21.798Z,61.23
2022-10-08T23:58:48.320Z,61.65
